DEN weather

Denver International Airport
Denver, Colorado, United States

Public forecast

Using degrees Fahrenheit for public forecast. Weather courtesy of forecast.io.

METAR (pilot weather report)

Retrieved 2017/03/29 08:53 UTC (17 minutes ago):

KDEN 290853Z 02011KT 4SM -SN BR BKN003 BKN008 OVC016 02/01 A3008

TAF (pilot weather forecast)

Retrieved 2017/03/29 06:42 UTC (2 hours ago):

TAF KDEN 290539Z 2906/3012 01016G25KT 5SM -RASN BR BKN006 OVC014 TEMPO 2906/2908 2SM -RASN BR OVC003 FM290900 36015KT 5SM -RASN BR BKN006 OVC012 FM291300 35012KT P6SM -SHRA SCT008 BKN012 FM291800 34015KT 5SM -RA BR SCT012 BKN020 FM292000 01015KT P6SM SCT020 BKN035 FM300100 05008KT P6SM SCT035 SCT100 FM300300 11006KT P6SM FEW100 FM300600 18010KT P6SM SKC